Airfield :
LOGIN :

Register | Disclaimer

   EN    FR    IT 

 










Legend :    VFR   Marginal VFR   IFR   Intensive IFR   Very Intensive IFR
Visi :
Ceiling :
>= 8 km
>= 3000ft
5 to 8 km
1000 to 3000 ft
1500m to 5 km
500 to 1000 ft
800 to 1500m
200 to 500 ft
< 800m
< 200 ft
Symbols :   Thunderstorms  Fog  Heavy snow  Heavy precipitations  Wind > 20 kt
SIGMETs :     Misc.  Thunderstorms  Icing  Turbulence  Mountain Waves  Volcanic Ashes






- Airport Elevation : 140 ft


ESTL - Ljungbyhed

CURRENT METAR :
  • 211950Z AUTO 10011KT 9999 BKN006/// OVC009/// 08/08 Q1014 REUP

EXPIRED METARs :
  • 211920Z AUTO 10009KT 6000 BR FEW005/// SCT007/// BKN009/// 08/08 Q1014 RESHUP
  • 211850Z AUTO 10011KT 3900 UP FEW005/// SCT006/// BKN008/// 08/08 Q1014 REUP
  • 211820Z AUTO 10012KT 3400 BR OVC004/// 08/08 Q1014
  • 211750Z AUTO 11013KT 8000 BR OVC005/// 08/08 Q1014 REDZ
  • 211720Z AUTO 10009KT 4000 BR FEW005/// SCT009/// 08/08 Q1014

Expired Forecast.



MET'MAP, your aeronautical weather chart ! - Copyright ORBIFLY December 2007 - Disclaimer

ORBIFLY MET'MAP TEAM :

Programming & Development : Alexandra Zaïnal
Concept & Development : Baudouin d'Aumeries
Co-Development & Prog : Marc-Olivier Méhu
Technical & hardware support : Manuel Goepfert

Contact : metmap@orbifly.com




SOURCES & CREDITS :

   NOAA